Time;durP1;ratioP1;P1;durP2;ratioP2;P2;SDS_P1;SDS_P2;PMS_P1;PMS_P2;Temp;Humidity;BMP_temperature;BMP_pressure;BME280_temperature;BME280_humidity;BME280_pressure;Samples;Min_cycle;Max_cycle;Signal;HPM_P1;HPM_P2
2022/07/07 00:01:08;;;;;;;3.50;3.20;;;;;;;13.66;100.00;155954.56;5025162;28;20088;-77
2022/07/07 00:03:34;;;;;;;3.70;3.40;;;;;;;13.58;100.00;155933.97;5027792;28;20120;-77
2022/07/07 00:06:00;;;;;;;4.82;3.47;;;;;;;13.58;100.00;155935.28;5046182;28;20025;-77
2022/07/07 00:08:26;;;;;;;3.65;3.30;;;;;;;13.56;100.00;155928.84;5028396;28;20064;-76
2022/07/07 00:10:52;;;;;;;3.60;3.30;;;;;;;13.63;100.00;155946.84;5025292;28;20121;-76
2022/07/07 00:13:18;;;;;;;5.63;3.47;;;;;;;13.66;100.00;155953.28;5019932;28;20200;-77
2022/07/07 00:15:45;;;;;;;3.33;3.00;;;;;;;13.67;100.00;155957.13;5016961;28;20037;-80
2022/07/07 00:18:14;;;;;;;4.55;3.00;;;;;;;13.67;100.00;155955.84;5049699;28;20109;-80
2022/07/07 00:20:40;;;;;;;6.63;3.65;;;;;;;13.65;100.00;155950.69;5013047;28;20030;-78
2022/07/07 00:23:05;;;;;;;3.20;2.67;;;;;;;13.61;100.00;155942.97;5027018;28;20084;-78
2022/07/07 00:25:31;;;;;;;3.33;3.03;;;;;;;13.70;100.00;155963.56;5031390;28;20500;-78
2022/07/07 00:27:56;;;;;;;3.05;2.85;;;;;;;13.79;100.00;155986.72;5031307;28;20121;-78
2022/07/07 00:30:22;;;;;;;3.33;2.97;;;;;;;13.70;100.00;155964.84;5014041;28;20033;-78
2022/07/07 00:32:48;;;;;;;2.92;2.72;;;;;;;13.68;100.00;155959.72;5025610;28;20485;-79
2022/07/07 00:35:13;;;;;;;3.45;3.20;;;;;;;13.74;100.00;155975.13;5031042;28;20057;-78
2022/07/07 00:37:39;;;;;;;3.42;3.03;;;;;;;13.68;100.00;155959.72;5034956;28;20400;-77
2022/07/07 00:40:06;;;;;;;3.30;3.00;;;;;;;13.71;100.00;155966.13;5031474;28;20159;-79
2022/07/07 00:42:32;;;;;;;7.28;3.55;;;;;;;13.68;100.00;155958.44;5031891;28;20122;-77
2022/07/07 00:44:58;;;;;;;5.65;4.25;;;;;;;13.73;100.00;155972.56;5027994;28;20489;-77
2022/07/07 00:47:24;;;;;;;3.33;3.03;;;;;;;13.75;100.00;155976.38;5028745;28;20043;-77
2022/07/07 00:49:50;;;;;;;3.35;2.90;;;;;;;13.77;100.00;155981.56;5024950;28;20500;-77
2022/07/07 00:52:16;;;;;;;4.60;2.95;;;;;;;13.80;100.00;155989.25;5024026;28;20043;-76
2022/07/07 00:54:57;;;;;;;4.97;3.30;;;;;;;13.77;100.00;155982.84;5014914;28;20041;-77
2022/07/07 00:57:25;;;;;;;4.03;3.17;;;;;;;13.76;100.00;155978.97;5024480;28;20077;-77
2022/07/07 00:59:53;;;;;;;3.25;3.00;;;;;;;13.77;100.00;155981.56;5030669;28;20401;-77
2022/07/07 01:02:19;;;;;;;3.65;2.78;;;;;;;13.78;100.00;155984.13;5013778;28;20045;-77
2022/07/07 01:04:44;;;;;;;4.60;3.00;;;;;;;13.80;100.00;155989.25;5028853;28;20029;-80
2022/07/07 01:07:10;;;;;;;4.28;3.25;;;;;;;13.75;100.00;155977.72;5037674;28;20033;-80
2022/07/07 01:09:37;;;;;;;4.57;3.00;;;;;;;13.80;100.00;155989.25;5009274;28;20041;-79
2022/07/07 01:12:03;;;;;;;5.72;3.33;;;;;;;13.86;100.00;156003.41;5030982;28;20034;-80
2022/07/07 01:14:29;;;;;;;4.72;3.60;;;;;;;13.85;100.00;156000.84;5029785;28;20511;-80
2022/07/07 01:16:55;;;;;;;4.13;3.70;;;;;;;13.85;100.00;156000.84;5030152;28;20033;-80
2022/07/07 01:19:22;;;;;;;4.30;3.90;;;;;;;13.83;100.00;155997.00;5034869;28;20037;-80
2022/07/07 01:21:57;;;;;;;4.40;3.65;;;;;;;13.87;100.00;156006.00;5027349;28;20493;-79
2022/07/07 01:24:26;;;;;;;4.55;4.07;;;;;;;13.82;100.00;155994.41;5019477;28;20041;-79
2022/07/07 01:27:12;;;;;;;5.85;4.32;;;;;;;13.85;100.00;156002.13;5006825;28;20103;-79
2022/07/07 01:29:40;;;;;;;5.53;4.10;;;;;;;13.92;100.00;156020.13;5013877;28;20036;-79
2022/07/07 01:32:08;;;;;;;6.50;4.30;;;;;;;13.89;100.00;156011.13;5025390;28;20033;-78
2022/07/07 01:34:37;;;;;;;4.13;3.83;;;;;;;13.89;100.00;156011.13;5003706;28;20436;-79
2022/07/07 01:37:03;;;;;;;5.60;4.10;;;;;;;13.86;100.00;156004.66;5029012;28;20030;-79
2022/07/07 01:39:29;;;;;;;4.97;4.57;;;;;;;13.87;100.00;156007.25;5033307;28;20042;-79
2022/07/07 01:41:54;;;;;;;8.82;4.28;;;;;;;13.90;100.00;156015.00;5033919;28;20041;-78
2022/07/07 01:44:20;;;;;;;5.55;4.28;;;;;;;13.94;100.00;156025.28;5013097;28;20044;-78
2022/07/07 01:46:45;;;;;;;4.60;4.20;;;;;;;13.82;100.00;155994.41;5023165;28;20037;-79
2022/07/07 01:49:11;;;;;;;4.80;4.30;;;;;;;13.86;100.00;156004.66;5016134;28;20410;-78
2022/07/07 01:51:36;;;;;;;5.40;4.90;;;;;;;13.97;100.00;156031.69;5003138;28;20033;-76
2022/07/07 01:54:02;;;;;;;5.53;4.72;;;;;;;13.99;100.00;156038.13;5028218;28;20440;-79
2022/07/07 01:56:28;;;;;;;6.45;4.57;;;;;;;13.97;100.00;156032.94;5000669;28;20064;-79
2022/07/07 01:58:53;;;;;;;6.63;4.32;;;;;;;13.91;100.00;156016.25;5031543;28;20120;-79
2022/07/07 02:01:19;;;;;;;5.22;4.60;;;;;;;13.95;100.00;156027.81;5025848;28;20695;-79
2022/07/07 02:03:45;;;;;;;5.10;4.70;;;;;;;13.98;100.00;156035.56;5028152;28;20044;-78
2022/07/07 02:06:11;;;;;;;4.72;4.32;;;;;;;13.94;100.00;156025.28;5012113;28;20140;-78
2022/07/07 02:08:36;;;;;;;5.35;4.85;;;;;;;14.01;100.00;156043.28;5008103;28;20041;-79
2022/07/07 02:11:14;;;;;;;5.70;5.20;;;;;;;14.01;100.00;156041.97;5020277;28;20025;-79
2022/07/07 02:13:48;;;;;;;6.50;5.90;;;;;;;14.04;100.00;156048.41;5041031;28;20108;-78
2022/07/07 02:16:17;;;;;;;6.30;5.65;;;;;;;14.12;100.00;156068.97;5023726;28;20052;-80
2022/07/07 02:18:44;;;;;;;6.90;6.20;;;;;;;14.13;100.00;156072.84;5020070;28;20037;-79
2022/07/07 02:21:11;;;;;;;7.22;6.53;;;;;;;14.17;100.00;156083.13;5016210;28;20039;-78
2022/07/07 02:23:39;;;;;;;7.75;6.95;;;;;;;14.15;100.00;156077.97;5027138;28;20502;-78
2022/07/07 02:26:04;;;;;;;8.18;7.32;;;;;;;14.19;100.00;156086.97;5048464;28;20511;-79
2022/07/07 02:28:30;;;;;;;10.93;8.40;;;;;;;14.16;100.00;156080.53;5001140;28;20026;-77
2022/07/07 02:30:57;;;;;;;11.35;10.15;;;;;;;14.20;100.00;156090.84;5031966;28;20040;-79
2022/07/07 02:33:23;;;;;;;11.73;9.45;;;;;;;14.18;100.00;156085.72;5033099;28;20035;-78
2022/07/07 02:35:50;;;;;;;13.23;9.80;;;;;;;14.20;100.00;156089.53;5029335;28;20131;-78
2022/07/07 02:38:16;;;;;;;13.52;11.23;;;;;;;14.16;100.00;156080.53;5014095;28;20028;-78
2022/07/07 02:40:42;;;;;;;13.82;11.57;;;;;;;14.22;100.00;156094.66;5004425;28;20699;-78
2022/07/07 02:43:12;;;;;;;12.60;11.30;;;;;;;14.13;100.00;156072.84;5024648;28;20456;-78
2022/07/07 02:45:42;;;;;;;16.70;12.63;;;;;;;14.17;100.00;156081.84;5051955;28;20034;-80
2022/07/07 02:48:09;;;;;;;15.68;12.95;;;;;;;14.21;100.00;156093.41;5015143;28;20041;-79
2022/07/07 02:50:35;;;;;;;16.65;13.23;;;;;;;14.21;100.00;156093.41;5014748;28;20124;-77
2022/07/07 02:53:01;;;;;;;16.38;14.40;;;;;;;14.27;100.00;156106.28;5044021;28;20037;-78
2022/07/07 02:55:27;;;;;;;17.67;14.55;;;;;;;14.27;100.00;156106.28;5027571;28;20136;-79
2022/07/07 02:57:53;;;;;;;19.27;13.57;;;;;;;14.18;100.00;156085.72;5036082;28;20109;-80
2022/07/07 03:00:18;;;;;;;14.50;13.00;;;;;;;14.22;100.00;156094.66;5024940;28;20022;-80
2022/07/07 03:02:44;;;;;;;18.33;15.02;;;;;;;14.19;100.00;156086.97;5033688;28;20108;-78
2022/07/07 03:05:11;;;;;;;15.55;13.80;;;;;;;14.27;100.00;156107.53;5014426;28;20489;-77
2022/07/07 03:07:37;;;;;;;17.88;14.75;;;;;;;14.25;100.00;156102.41;5039525;28;20147;-78
2022/07/07 03:10:05;;;;;;;16.35;14.60;;;;;;;14.29;100.00;156111.41;5025442;28;20026;-78
2022/07/07 03:12:31;;;;;;;15.88;14.25;;;;;;;14.28;100.00;156108.81;5009808;28;20184;-78
2022/07/07 03:14:56;;;;;;;16.67;14.35;;;;;;;14.24;100.00;156098.53;5017471;28;20116;-78
2022/07/07 03:17:22;;;;;;;17.15;15.35;;;;;;;14.26;100.00;156103.66;4991151;28;20045;-78
2022/07/07 03:19:48;;;;;;;21.83;16.80;;;;;;;14.29;100.00;156112.69;5030876;28;20021;-78
2022/07/07 03:22:13;;;;;;;21.20;17.75;;;;;;;14.31;100.00;156116.53;5028637;28;20583;-78
2022/07/07 03:24:39;;;;;;;22.23;18.45;;;;;;;14.30;100.00;156115.28;5039488;28;20447;-78
2022/07/07 03:27:05;;;;;;;22.70;19.35;;;;;;;14.34;100.00;156124.28;5026710;28;20037;-78
2022/07/07 03:29:30;;;;;;;23.00;18.25;;;;;;;14.31;100.00;156117.81;5037147;28;20025;-79
2022/07/07 03:31:56;;;;;;;21.48;18.25;;;;;;;14.28;100.00;156108.81;5004256;28;20034;-79
2022/07/07 03:34:22;;;;;;;23.75;20.08;;;;;;;14.35;100.00;156126.81;5035262;28;20099;-79
2022/07/07 03:36:47;;;;;;;25.83;19.73;;;;;;;14.33;100.00;156122.97;5033196;28;20029;-79
2022/07/07 03:39:13;;;;;;;20.73;18.13;;;;;;;14.35;100.00;156128.16;5041773;28;20048;-79
2022/07/07 03:41:38;;;;;;;23.73;18.83;;;;;;;14.34;100.00;156124.28;5017130;28;20072;-80
2022/07/07 03:44:04;;;;;;;23.95;18.77;;;;;;;14.31;100.00;156116.53;4989581;28;20034;-78
2022/07/07 03:46:30;;;;;;;22.52;17.65;;;;;;;14.34;100.00;156124.28;5047253;28;20030;-78
2022/07/07 03:48:56;;;;;;;21.23;17.85;;;;;;;14.37;100.00;156131.97;5014355;28;20025;-79
2022/07/07 03:51:22;;;;;;;23.65;18.55;;;;;;;14.35;100.00;156126.81;5015684;28;20649;-79
2022/07/07 03:53:47;;;;;;;25.58;19.50;;;;;;;14.37;100.00;156131.97;5017238;28;20040;-78
2022/07/07 03:56:13;;;;;;;21.50;18.20;;;;;;;14.33;100.00;156121.69;5014941;28;20040;-77
2022/07/07 03:58:39;;;;;;;21.27;17.30;;;;;;;14.40;100.00;156140.97;5031821;28;20046;-78
2022/07/07 04:01:04;;;;;;;20.83;16.63;;;;;;;14.43;100.00;156147.44;5036790;28;20064;-79
2022/07/07 04:03:30;;;;;;;21.25;17.02;;;;;;;14.39;100.00;156137.09;5015393;28;20037;-79
2022/07/07 04:05:55;;;;;;;17.60;15.30;;;;;;;14.37;100.00;156133.28;5031256;28;20037;-78
2022/07/07 04:08:21;;;;;;;19.05;16.05;;;;;;;14.32;100.00;156120.41;5030845;28;20041;-79
2022/07/07 04:10:47;;;;;;;19.02;15.88;;;;;;;14.35;100.00;156128.16;5015937;28;20104;-79
2022/07/07 04:13:13;;;;;;;20.70;15.13;;;;;;;14.44;100.00;156149.97;5004076;28;20389;-79
2022/07/07 04:15:38;;;;;;;17.33;14.88;;;;;;;14.39;100.00;156138.41;5027658;28;20088;-79
2022/07/07 04:18:04;;;;;;;18.58;15.90;;;;;;;14.43;100.00;156147.44;5047844;28;20241;-80
2022/07/07 04:20:30;;;;;;;18.23;15.05;;;;;;;14.39;100.00;156137.09;5024668;28;20039;-80
2022/07/07 04:22:56;;;;;;;18.02;14.27;;;;;;;14.34;100.00;156125.56;5020675;28;20045;-80
2022/07/07 04:25:22;;;;;;;17.42;15.00;;;;;;;14.39;100.00;156138.41;5019023;28;20037;-79
2022/07/07 04:27:48;;;;;;;16.13;13.88;;;;;;;14.31;100.00;156117.81;5024594;28;20030;-79
2022/07/07 04:30:14;;;;;;;14.65;12.98;;;;;;;14.30;100.00;156114.00;5051180;28;20483;-80
2022/07/07 04:32:40;;;;;;;16.50;14.70;;;;;;;14.28;100.00;156110.13;5034741;28;20120;-79
2022/07/07 04:35:07;;;;;;;19.90;15.38;;;;;;;14.34;100.00;156124.28;5020771;28;20037;-79
2022/07/07 04:37:33;;;;;;;16.45;14.73;;;;;;;14.41;100.00;156143.56;5005205;28;20405;-77
2022/07/07 04:39:59;;;;;;;18.30;14.25;;;;;;;14.33;100.00;156122.97;5041226;28;20025;-79
2022/07/07 04:42:24;;;;;;;16.85;14.18;;;;;;;14.33;100.00;156122.97;5026815;28;20040;-79
2022/07/07 04:44:50;;;;;;;17.83;14.82;;;;;;;14.33;100.00;156122.97;5019300;28;20030;-80
2022/07/07 04:47:16;;;;;;;15.68;13.82;;;;;;;14.30;100.00;156115.28;5003501;28;20029;-78
2022/07/07 04:49:42;;;;;;;16.48;14.73;;;;;;;14.31;100.00;156117.81;5024577;28;20084;-80
2022/07/07 04:52:08;;;;;;;20.60;16.55;;;;;;;14.38;100.00;156134.56;5028459;28;20041;-80
2022/07/07 04:54:34;;;;;;;18.90;15.43;;;;;;;14.39;100.00;156137.09;5040336;28;20042;-81
2022/07/07 04:57:00;;;;;;;19.02;16.80;;;;;;;14.44;100.00;156148.69;5041910;28;20036;-80
2022/07/07 04:59:25;;;;;;;20.52;17.58;;;;;;;14.47;100.00;156156.44;5017569;28;20041;-79
2022/07/07 05:01:51;;;;;;;20.92;16.95;;;;;;;14.46;100.00;156155.13;5032274;28;20129;-80
2022/07/07 05:04:17;;;;;;;19.63;17.15;;;;;;;14.43;100.00;156147.44;5051775;28;20057;-80
2022/07/07 05:06:43;;;;;;;22.70;17.05;;;;;;;14.39;100.00;156138.41;5037118;28;20057;-80
2022/07/07 05:09:09;;;;;;;21.30;18.02;;;;;;;14.45;100.00;156152.56;5006632;28;20033;-79
2022/07/07 05:11:36;;;;;;;23.30;17.02;;;;;;;14.44;100.00;156148.69;5027764;28;20444;-79
2022/07/07 05:14:02;;;;;;;19.92;16.35;;;;;;;14.45;100.00;156151.25;5030221;28;20030;-79
2022/07/07 05:16:29;;;;;;;21.48;16.38;;;;;;;14.50;100.00;156165.41;5045292;28;20401;-80
2022/07/07 05:18:55;;;;;;;17.50;14.63;;;;;;;14.49;100.00;156162.84;5030627;28;20040;-78
2022/07/07 05:21:21;;;;;;;17.17;14.18;;;;;;;14.48;100.00;156160.25;5017201;28;20025;-78
2022/07/07 05:23:47;;;;;;;15.32;13.73;;;;;;;14.50;100.00;156165.41;5016069;28;20065;-78
2022/07/07 05:26:12;;;;;;;26.52;14.10;;;;;;;14.44;100.00;156149.97;5029278;28;20506;-79
2022/07/07 05:28:41;;;;;;;17.60;12.40;;;;;;;14.48;100.00;156160.25;5026128;28;20038;-80
2022/07/07 05:31:10;;;;;;;17.30;14.20;;;;;;;14.46;100.00;156155.13;5019147;28;20033;-80
2022/07/07 05:33:36;;;;;;;16.80;13.15;;;;;;;14.43;100.00;156146.13;4997403;28;20053;-80
2022/07/07 05:36:03;;;;;;;14.75;13.13;;;;;;;14.41;100.00;156143.56;5020976;28;20463;-79
2022/07/07 05:38:29;;;;;;;12.63;11.27;;;;;;;14.51;100.00;156168.00;5017707;28;20588;-78
2022/07/07 05:40:55;;;;;;;15.93;12.23;;;;;;;14.56;100.00;156179.53;5038471;28;20117;-79
2022/07/07 05:43:21;;;;;;;11.27;9.05;;;;;;;14.59;100.00;156188.59;5030209;28;20473;-79
2022/07/07 05:45:46;;;;;;;10.88;9.48;;;;;;;14.70;100.00;156214.34;5025236;28;20049;-80
2022/07/07 05:48:12;;;;;;;12.52;9.40;;;;;;;14.67;100.00;156206.63;5029099;28;20045;-81
2022/07/07 05:50:37;;;;;;;10.15;9.00;;;;;;;14.71;100.00;156216.91;5033697;28;20093;-78
2022/07/07 05:53:03;;;;;;;10.13;9.13;;;;;;;14.79;100.00;156237.50;5012964;28;20037;-80
2022/07/07 05:55:29;;;;;;;11.75;9.40;;;;;;;14.85;100.00;156251.66;5045653;28;20033;-78
2022/07/07 05:57:55;;;;;;;9.63;8.27;;;;;;;14.86;100.00;156254.19;5041933;28;20092;-77
2022/07/07 06:00:21;;;;;;;10.15;8.75;;;;;;;14.85;100.00;156252.94;5026797;28;20109;-79
2022/07/07 06:02:46;;;;;;;10.32;8.30;;;;;;;14.90;100.00;156264.47;5029517;28;20092;-78
2022/07/07 06:05:12;;;;;;;10.18;7.68;;;;;;;15.01;100.00;156291.50;5025951;28;20045;-79
2022/07/07 06:07:38;;;;;;;8.88;7.53;;;;;;;15.04;100.00;156300.53;5029693;28;20899;-77
2022/07/07 06:10:04;;;;;;;11.93;7.60;;;;;;;14.97;100.00;156282.50;5030929;28;20115;-79
2022/07/07 06:12:30;;;;;;;8.27;6.82;;;;;;;15.11;100.00;156318.53;5031376;28;20121;-77
2022/07/07 06:14:55;;;;;;;8.05;6.70;;;;;;;15.25;100.00;156353.25;5033745;28;20065;-77
2022/07/07 06:17:21;;;;;;;10.05;5.97;;;;;;;15.29;100.00;156362.28;5028960;28;20033;-79
2022/07/07 06:19:47;;;;;;;7.10;5.63;;;;;;;15.37;100.00;156382.88;5037896;28;20040;-76
2022/07/07 06:22:12;;;;;;;6.00;5.35;;;;;;;15.41;100.00;156391.84;5025992;28;20037;-77
2022/07/07 06:24:38;;;;;;;6.13;5.53;;;;;;;15.49;100.00;156413.75;5019517;28;20603;-78
2022/07/07 06:27:04;;;;;;;5.82;4.88;;;;;;;15.57;100.00;156434.31;5011160;28;20116;-79
2022/07/07 06:29:30;;;;;;;6.70;4.75;;;;;;;15.74;100.00;156476.84;5016101;28;20029;-79
2022/07/07 06:31:56;;;;;;;8.00;4.30;;;;;;;15.95;100.00;156529.66;5027167;28;20060;-78
2022/07/07 06:34:21;;;;;;;4.93;3.50;;;;;;;16.11;100.00;156569.53;5017819;28;20733;-79
2022/07/07 06:36:47;;;;;;;3.83;2.92;;;;;;;16.09;100.00;156564.38;5030602;28;20030;-78
2022/07/07 06:39:12;;;;;;;4.13;2.55;;;;;;;16.09;100.00;156563.09;5010172;28;20041;-78
2022/07/07 06:41:39;;;;;;;2.58;2.10;;;;;;;16.05;100.00;156552.78;5028195;28;20108;-79
2022/07/07 06:44:05;;;;;;;2.88;2.17;;;;;;;16.14;100.00;156575.94;5038141;28;20038;-79
2022/07/07 06:46:32;;;;;;;2.05;1.80;;;;;;;16.09;100.00;156563.09;5035503;28;20098;-82
2022/07/07 06:48:58;;;;;;;3.30;1.52;;;;;;;16.06;100.00;156555.38;5038556;28;20118;-80
2022/07/07 06:51:24;;;;;;;2.58;1.80;;;;;;;15.98;100.00;156536.06;5015656;28;20080;-79
2022/07/07 06:53:50;;;;;;;1.67;1.58;;;;;;;15.97;100.00;156533.47;5034564;28;20485;-79
2022/07/07 06:56:15;;;;;;;1.55;1.42;;;;;;;15.90;100.00;156516.75;5052383;28;20048;-78
2022/07/07 06:58:41;;;;;;;3.50;1.67;;;;;;;15.78;100.00;156485.84;5040699;28;20053;-78
2022/07/07 07:01:08;;;;;;;3.47;1.77;;;;;;;15.82;100.00;156494.88;5034782;28;20072;-77
2022/07/07 07:03:33;;;;;;;5.53;2.05;;;;;;;15.83;100.00;156498.72;5011111;28;20045;-78
2022/07/07 07:05:59;;;;;;;1.67;1.58;;;;;;;15.92;100.00;156521.91;5021516;28;20096;-79
2022/07/07 07:08:25;;;;;;;3.97;2.03;;;;;;;15.90;100.00;156515.50;5026164;28;20029;-77
2022/07/07 07:10:50;;;;;;;2.42;1.90;;;;;;;15.87;100.00;156507.75;5018745;28;20057;-78
2022/07/07 07:13:17;;;;;;;4.05;2.00;;;;;;;15.85;100.00;156502.59;5013935;28;20049;-78
2022/07/07 07:15:44;;;;;;;5.47;2.20;;;;;;;15.79;100.00;156488.44;5031316;28;20057;-79
2022/07/07 07:18:10;;;;;;;5.20;2.60;;;;;;;15.72;100.00;156471.63;5034247;28;20113;-79
2022/07/07 07:20:36;;;;;;;6.50;2.92;;;;;;;15.80;100.00;156489.72;5025461;28;20042;-78
2022/07/07 07:23:01;;;;;;;3.05;2.17;;;;;;;15.99;100.00;156537.34;5028456;28;20040;-79
2022/07/07 07:25:27;;;;;;;4.38;2.10;;;;;;;16.09;100.00;156563.09;5029492;28;20034;-78
2022/07/07 07:27:53;;;;;;;5.40;2.58;;;;;;;16.09;100.00;156564.38;4992624;28;20041;-78
2022/07/07 07:30:19;;;;;;;4.38;2.40;;;;;;;16.09;100.00;156563.09;4996782;28;20025;-78
2022/07/07 07:32:44;;;;;;;6.80;2.08;;;;;;;16.05;100.00;156552.78;5018364;28;20045;-77
2022/07/07 07:35:11;;;;;;;6.68;2.72;;;;;;;16.15;100.00;156579.81;5028671;28;20034;-77
2022/07/07 07:37:38;;;;;;;8.45;2.22;;;;;;;16.17;100.00;156583.69;5051863;28;20417;-78
2022/07/07 07:40:09;;;;;;;6.40;2.38;;;;;;;16.38;100.00;156635.19;5033661;28;20026;-79
2022/07/07 07:42:36;;;;;;;6.88;2.70;;;;;;;16.55;100.00;156678.94;5009615;28;20046;-78
2022/07/07 07:45:09;;;;;;;5.07;2.00;;;;;;;16.99;100.00;156788.47;5046748;28;20030;-77
2022/07/07 07:47:46;;;;;;;4.03;1.88;;;;;;;17.28;100.00;156863.16;5018097;28;20505;-78
2022/07/07 07:50:15;;;;;;;3.72;2.20;;;;;;;17.27;100.00;156859.31;5014804;28;20036;-79
2022/07/07 07:52:42;;;;;;;3.88;1.63;;;;;;;17.63;100.00;156950.78;5031195;28;20532;-78
2022/07/07 07:55:10;;;;;;;5.75;1.88;;;;;;;17.91;100.00;157020.38;5036128;28;20804;-77
2022/07/07 07:57:36;;;;;;;6.55;2.08;;;;;;;18.28;100.00;157114.47;5018548;28;20040;-77
2022/07/07 08:00:06;;;;;;;8.73;1.95;;;;;;;18.43;100.00;157151.84;4997540;28;20113;-78
2022/07/07 08:02:38;;;;;;;6.75;2.03;;;;;;;18.22;100.00;157099.03;5031175;28;20029;-80
2022/07/07 08:05:04;;;;;;;6.25;1.83;;;;;;;18.09;100.00;157065.50;5038340;28;20063;-80
2022/07/07 08:07:30;;;;;;;5.90;1.90;;;;;;;18.07;100.00;157061.63;5014702;28;20056;-79
2022/07/07 08:09:55;;;;;;;8.52;2.42;;;;;;;17.75;100.00;156980.41;5016618;28;20026;-78
2022/07/07 08:12:21;;;;;;;6.93;1.55;;;;;;;17.31;100.00;156870.91;5024184;28;20037;-78
2022/07/07 08:14:47;;;;;;;5.80;1.50;;;;;;;16.77;100.00;156734.34;5049333;28;20409;-79
2022/07/07 08:17:13;;;;;;;4.78;1.60;;;;;;;16.71;100.00;156720.16;5031860;28;20108;-81
2022/07/07 08:19:38;;;;;;;8.75;2.55;;;;;;;16.52;100.00;156671.25;5030440;28;20129;-79
2022/07/07 08:22:04;;;;;;;7.82;1.95;;;;;;;16.23;100.00;156599.13;5031529;28;20049;-79
2022/07/07 08:24:30;;;;;;;5.35;1.70;;;;;;;16.17;100.00;156583.69;5016918;28;20535;-78
2022/07/07 08:26:55;;;;;;;10.32;2.25;;;;;;;16.10;100.00;156565.66;5030027;28;20038;-79
2022/07/07 08:29:21;;;;;;;5.57;1.70;;;;;;;16.18;100.00;156586.28;5028584;28;20033;-79
2022/07/07 08:31:47;;;;;;;6.53;2.30;;;;;;;16.40;100.00;156641.59;5014316;28;20037;-79
2022/07/07 08:34:13;;;;;;;7.88;2.20;;;;;;;16.48;100.00;156660.91;5028636;28;20068;-80
2022/07/07 08:36:38;;;;;;;5.65;2.33;;;;;;;16.77;100.00;156733.06;5033080;28;20065;-79
2022/07/07 08:39:04;;;;;;;7.40;2.25;;;;;;;16.89;100.00;156765.28;5030294;28;20038;-79
2022/07/07 08:41:30;;;;;;;7.65;2.78;;;;;;;17.09;100.00;156815.50;5038433;28;20038;-81
2022/07/07 08:43:56;;;;;;;9.25;2.40;;;;;;;17.21;100.00;156843.84;5015536;28;20044;-81
2022/07/07 08:46:23;;;;;;;10.70;2.80;;;;;;;17.11;100.00;156819.38;5033232;28;20564;-79
2022/07/07 08:48:50;;;;;;;9.98;2.85;;;;;;;17.05;100.00;156805.22;5052389;28;20033;-82
2022/07/07 08:51:16;;;;;;;10.90;3.00;;;;;;;17.24;100.00;156851.59;5028076;28;20033;-80
2022/07/07 08:53:44;;;;;;;11.20;3.22;;;;;;;17.57;100.00;156934.03;5028814;28;20029;-79
2022/07/07 08:56:11;;;;;;;9.73;2.95;;;;;;;17.99;100.00;157039.72;5050433;28;20029;-80
2022/07/07 08:58:36;;;;;;;11.48;3.03;;;;;;;18.31;100.00;157119.63;5030971;28;20044;-81
2022/07/07 09:01:03;;;;;;;8.23;2.30;;;;;;;18.32;100.00;157123.50;5022503;28;20627;-79
2022/07/07 09:03:29;;;;;;;9.35;2.20;;;;;;;18.44;100.00;157153.13;5027861;28;20038;-82
2022/07/07 09:05:57;;;;;;;8.52;2.30;;;;;;;18.81;100.00;157247.28;5009781;28;20033;-82
2022/07/07 09:08:24;;;;;;;8.05;2.00;;;;;;;18.74;100.00;157229.22;5036532;28;20041;-82
2022/07/07 09:10:50;;;;;;;6.45;2.63;;;;;;;18.24;100.00;157102.91;5026385;28;20558;-80
2022/07/07 09:13:21;;;;;;;9.05;2.28;;;;;;;17.85;100.00;157004.94;5009860;28;20037;-81
2022/07/07 09:15:48;;;;;;;9.80;2.42;;;;;;;17.37;100.00;156883.81;4999239;28;20039;-82
2022/07/07 09:18:27;;;;;;;4.93;2.30;;;;;;;17.26;100.00;156856.75;5015185;28;20041;-80
2022/07/07 09:20:53;;;;;;;7.32;2.28;;;;;;;17.44;100.00;156901.81;4998051;28;20045;-81
2022/07/07 09:23:18;;;;;;;8.07;1.98;;;;;;;18.03;100.00;157050.06;5031917;28;20032;-80
2022/07/07 09:25:44;;;;;;;10.07;2.55;;;;;;;18.82;100.00;157248.63;5012447;28;20040;-80
2022/07/07 09:28:10;;;;;;;8.32;1.85;;;;;;;19.08;100.00;157313.06;5025496;28;20037;-79
2022/07/07 09:30:38;;;;;;;7.03;2.17;;;;;;;18.92;100.00;157273.09;5050311;28;20084;-79
2022/07/07 09:33:09;;;;;;;5.57;1.70;;;;;;;18.70;100.00;157217.59;5015172;28;20060;-79
2022/07/07 09:38:22;;;;;;;7.15;1.50;;;;;;;18.07;100.00;157061.63;5028028;28;20048;-78
2022/07/07 09:40:48;;;;;;;4.88;1.20;;;;;;;17.77;100.00;156984.28;5014880;28;20085;-80
2022/07/07 09:43:14;;;;;;;6.97;1.38;;;;;;;17.61;100.00;156944.31;5029323;28;20037;-78
2022/07/07 09:45:40;;;;;;;8.68;1.42;;;;;;;17.41;100.00;156894.09;5036745;28;20021;-79
2022/07/07 09:48:08;;;;;;;3.95;1.33;;;;;;;17.40;100.00;156892.78;5020830;28;20037;-79
2022/07/07 09:50:34;;;;;;;8.40;1.65;;;;;;;17.27;100.00;156859.31;5037637;28;20049;-80
2022/07/07 09:53:07;;;;;;;6.93;1.40;;;;;;;17.47;100.00;156909.56;5045241;28;20037;-79
2022/07/07 09:55:33;;;;;;;6.40;1.88;;;;;;;17.94;100.00;157026.88;5025329;28;20045;-77
2022/07/07 09:57:59;;;;;;;5.85;1.73;;;;;;;18.46;100.00;157159.59;5044190;28;20033;-79
2022/07/07 10:00:25;;;;;;;4.95;1.35;;;;;;;18.92;100.00;157273.09;5025452;28;20170;-79
2022/07/07 10:02:54;;;;;;;4.90;1.30;;;;;;;19.09;100.00;157316.94;5018800;28;20029;-81
2022/07/07 10:05:22;;;;;;;8.57;1.60;;;;;;;18.90;100.00;157267.94;5026904;28;20025;-79
2022/07/07 10:07:48;;;;;;;6.32;1.50;;;;;;;18.57;100.00;157185.38;5025678;28;20034;-80
2022/07/07 10:10:20;;;;;;;3.83;1.23;;;;;;;18.18;100.00;157087.44;5031658;28;20733;-80
2022/07/07 10:12:46;;;;;;;4.00;1.25;;;;;;;17.81;100.00;156994.59;4996115;28;20052;-78
2022/07/07 10:15:12;;;;;;;4.60;1.65;;;;;;;17.49;100.00;156915.97;5013254;28;20117;-77
2022/07/07 10:17:43;;;;;;;8.52;1.80;;;;;;;17.64;100.00;156952.06;5015411;28;20041;-77
2022/07/07 10:20:11;;;;;;;5.93;1.77;;;;;;;17.93;100.00;157024.25;5019778;28;20132;-77
2022/07/07 10:22:37;;;;;;;6.97;1.95;;;;;;;17.86;100.00;157008.81;5031769;28;20496;-78
2022/07/07 10:25:07;;;;;;;8.02;1.88;;;;;;;17.96;100.00;157032.00;5013730;28;20152;-77
2022/07/07 10:27:33;;;;;;;9.85;1.65;;;;;;;17.99;100.00;157039.72;5022655;28;20041;-78
2022/07/07 10:30:01;;;;;;;8.07;1.85;;;;;;;18.18;100.00;157087.44;5008039;28;20034;-78
2022/07/07 10:32:41;;;;;;;5.68;1.52;;;;;;;18.36;100.00;157133.81;5028355;28;20547;-77
2022/07/07 10:35:12;;;;;;;4.90;1.83;;;;;;;18.42;100.00;157149.31;5029297;28;20128;-77
2022/07/07 10:37:43;;;;;;;9.68;1.73;;;;;;;18.39;100.00;157141.56;5029486;28;20408;-77
2022/07/07 10:40:30;;;;;;;3.85;1.42;;;;;;;18.02;100.00;157047.47;5042286;28;20033;-77
2022/07/07 10:43:37;;;;;;;5.95;2.00;;;;;;;17.84;100.00;157003.66;5039976;28;20030;-78
2022/07/07 10:46:03;;;;;;;5.63;1.90;;;;;;;17.48;100.00;156913.44;4970452;28;20052;-77
2022/07/07 10:48:42;;;;;;;6.88;1.58;;;;;;;17.63;100.00;156949.47;4986756;28;20129;-77
2022/07/07 10:51:15;;;;;;;6.72;1.70;;;;;;;18.06;100.00;157059.09;4994097;28;20049;-77
2022/07/07 10:53:58;;;;;;;3.05;1.35;;;;;;;18.60;100.00;157194.38;5026662;28;20124;-76
2022/07/07 10:56:24;;;;;;;3.05;1.00;;;;;;;19.14;100.00;157328.56;5028495;28;20047;-78
2022/07/07 10:58:59;;;;;;;5.10;1.67;;;;;;;20.02;100.00;157551.72;5031353;28;20431;-77
2022/07/07 11:01:27;;;;;;;2.83;1.27;;;;;;;20.19;100.00;157592.97;5019585;28;20087;-76
2022/07/07 11:03:53;;;;;;;7.00;1.50;;;;;;;19.84;99.28;157505.28;5046229;28;20492;-79
2022/07/07 11:06:19;;;;;;;9.82;1.33;;;;;;;19.64;97.47;157456.19;5022504;28;20087;-76
2022/07/07 11:08:56;;;;;;;6.80;1.58;;;;;;;19.87;100.00;157511.72;5013053;28;20403;-76
2022/07/07 11:11:21;;;;;;;5.93;1.40;;;;;;;19.92;100.00;157524.63;5019364;28;20037;-77
2022/07/07 11:13:47;;;;;;;3.42;1.13;;;;;;;20.02;100.00;157550.41;5015274;28;20396;-76